sensor_id;sensor_type;location;lat;lon;timestamp;P1;durP1;ratioP1;P2;durP2;ratioP2
6561;SDS011;3314;50.890;4.722;2022-10-31T00:01:46;17.3;;;6.6;;
6561;SDS011;3314;50.890;4.722;2022-10-31T00:03:46;15.5;;;6.0;;
6561;SDS011;3314;50.890;4.722;2022-10-31T00:05:46;17.2;;;6.7;;
6561;SDS011;3314;50.890;4.722;2022-10-31T00:07:46;13.8;;;5.9;;
6561;SDS011;3314;50.890;4.722;2022-10-31T00:09:46;18.0;;;6.8;;
6561;SDS011;3314;50.890;4.722;2022-10-31T00:11:46;18.1;;;7.6;;
6561;SDS011;3314;50.890;4.722;2022-10-31T00:13:45;15.2;;;6.4;;
6561;SDS011;3314;50.890;4.722;2022-10-31T00:15:45;28.6;;;12.1;;
6561;SDS011;3314;50.890;4.722;2022-10-31T00:17:45;17.3;;;5.8;;
6561;SDS011;3314;50.890;4.722;2022-10-31T00:19:44;20.2;;;6.5;;
6561;SDS011;3314;50.890;4.722;2022-10-31T00:21:44;18.8;;;5.9;;
6561;SDS011;3314;50.890;4.722;2022-10-31T00:23:44;19.0;;;6.5;;
6561;SDS011;3314;50.890;4.722;2022-10-31T00:25:44;17.7;;;5.6;;
6561;SDS011;3314;50.890;4.722;2022-10-31T00:27:43;16.3;;;7.0;;
6561;SDS011;3314;50.890;4.722;2022-10-31T00:29:43;15.6;;;6.2;;
6561;SDS011;3314;50.890;4.722;2022-10-31T00:31:45;14.1;;;6.1;;
6561;SDS011;3314;50.890;4.722;2022-10-31T00:33:45;14.8;;;6.5;;
6561;SDS011;3314;50.890;4.722;2022-10-31T00:35:49;19.3;;;6.0;;
6561;SDS011;3314;50.890;4.722;2022-10-31T00:37:37;16.2;;;6.3;;
6561;SDS011;3314;50.890;4.722;2022-10-31T00:39:37;19.2;;;6.1;;
6561;SDS011;3314;50.890;4.722;2022-10-31T00:41:37;21.2;;;8.1;;
6561;SDS011;3314;50.890;4.722;2022-10-31T00:43:37;21.5;;;6.8;;
6561;SDS011;3314;50.890;4.722;2022-10-31T00:45:36;20.5;;;7.2;;
6561;SDS011;3314;50.890;4.722;2022-10-31T00:47:36;20.2;;;7.1;;
6561;SDS011;3314;50.890;4.722;2022-10-31T00:49:36;23.2;;;8.9;;
6561;SDS011;3314;50.890;4.722;2022-10-31T00:51:36;16.5;;;7.1;;
6561;SDS011;3314;50.890;4.722;2022-10-31T00:53:35;16.1;;;6.8;;
6561;SDS011;3314;50.890;4.722;2022-10-31T00:55:35;19.2;;;7.9;;
6561;SDS011;3314;50.890;4.722;2022-10-31T00:57:35;20.7;;;7.5;;
6561;SDS011;3314;50.890;4.722;2022-10-31T00:59:35;15.1;;;6.3;;
6561;SDS011;3314;50.890;4.722;2022-10-31T01:01:34;19.5;;;7.1;;
6561;SDS011;3314;50.890;4.722;2022-10-31T01:03:35;17.6;;;7.1;;
6561;SDS011;3314;50.890;4.722;2022-10-31T01:05:34;16.8;;;5.9;;
6561;SDS011;3314;50.890;4.722;2022-10-31T01:07:35;19.5;;;7.8;;
6561;SDS011;3314;50.890;4.722;2022-10-31T01:09:35;17.5;;;7.7;;
6561;SDS011;3314;50.890;4.722;2022-10-31T01:11:35;16.8;;;7.5;;
6561;SDS011;3314;50.890;4.722;2022-10-31T01:13:34;17.8;;;7.5;;
6561;SDS011;3314;50.890;4.722;2022-10-31T01:15:34;18.5;;;7.2;;
6561;SDS011;3314;50.890;4.722;2022-10-31T01:17:34;18.1;;;7.7;;
6561;SDS011;3314;50.890;4.722;2022-10-31T01:19:33;18.1;;;8.1;;
6561;SDS011;3314;50.890;4.722;2022-10-31T01:21:33;19.6;;;8.4;;
6561;SDS011;3314;50.890;4.722;2022-10-31T01:23:33;17.7;;;7.5;;
6561;SDS011;3314;50.890;4.722;2022-10-31T01:25:33;20.7;;;8.2;;
6561;SDS011;3314;50.890;4.722;2022-10-31T01:27:35;20.9;;;8.5;;
6561;SDS011;3314;50.890;4.722;2022-10-31T01:29:35;17.2;;;7.9;;
6561;SDS011;3314;50.890;4.722;2022-10-31T01:31:35;19.2;;;7.0;;
6561;SDS011;3314;50.890;4.722;2022-10-31T01:33:35;24.0;;;8.4;;
6561;SDS011;3314;50.890;4.722;2022-10-31T01:35:35;16.5;;;6.8;;
6561;SDS011;3314;50.890;4.722;2022-10-31T01:37:35;17.5;;;7.4;;
6561;SDS011;3314;50.890;4.722;2022-10-31T01:39:34;18.9;;;8.3;;
6561;SDS011;3314;50.890;4.722;2022-10-31T01:41:35;16.8;;;7.0;;
6561;SDS011;3314;50.890;4.722;2022-10-31T01:43:51;26.4;;;8.2;;
6561;SDS011;3314;50.890;4.722;2022-10-31T01:45:39;20.4;;;7.3;;
6561;SDS011;3314;50.890;4.722;2022-10-31T01:47:41;20.1;;;7.2;;
6561;SDS011;3314;50.890;4.722;2022-10-31T01:49:31;19.9;;;7.8;;
6561;SDS011;3314;50.890;4.722;2022-10-31T01:51:32;19.9;;;8.8;;
6561;SDS011;3314;50.890;4.722;2022-10-31T01:53:34;17.5;;;7.8;;
6561;SDS011;3314;50.890;4.722;2022-10-31T01:55:35;22.3;;;8.9;;
6561;SDS011;3314;50.890;4.722;2022-10-31T01:57:37;18.8;;;8.7;;
6561;SDS011;3314;50.890;4.722;2022-10-31T01:59:38;18.9;;;8.2;;
6561;SDS011;3314;50.890;4.722;2022-10-31T02:01:27;20.0;;;8.7;;
6561;SDS011;3314;50.890;4.722;2022-10-31T02:03:28;22.0;;;9.0;;
6561;SDS011;3314;50.890;4.722;2022-10-31T02:05:28;22.8;;;8.8;;
6561;SDS011;3314;50.890;4.722;2022-10-31T02:07:30;16.5;;;7.1;;
6561;SDS011;3314;50.890;4.722;2022-10-31T02:09:32;16.2;;;8.3;;
6561;SDS011;3314;50.890;4.722;2022-10-31T02:11:34;21.2;;;7.9;;
6561;SDS011;3314;50.890;4.722;2022-10-31T02:13:34;17.2;;;7.6;;
6561;SDS011;3314;50.890;4.722;2022-10-31T02:15:34;20.9;;;8.1;;
6561;SDS011;3314;50.890;4.722;2022-10-31T02:17:34;36.7;;;7.7;;
6561;SDS011;3314;50.890;4.722;2022-10-31T02:19:34;20.0;;;7.7;;
6561;SDS011;3314;50.890;4.722;2022-10-31T02:21:30;19.9;;;7.6;;
6561;SDS011;3314;50.890;4.722;2022-10-31T02:23:36;21.6;;;7.4;;
6561;SDS011;3314;50.890;4.722;2022-10-31T02:25:33;18.5;;;8.3;;
6561;SDS011;3314;50.890;4.722;2022-10-31T02:27:30;17.5;;;7.4;;
6561;SDS011;3314;50.890;4.722;2022-10-31T02:30:28;19.7;;;8.1;;
6561;SDS011;3314;50.890;4.722;2022-10-31T02:31:31;18.3;;;7.0;;
6561;SDS011;3314;50.890;4.722;2022-10-31T02:33:35;17.0;;;7.4;;
6561;SDS011;3314;50.890;4.722;2022-10-31T02:35:30;17.8;;;7.2;;
6561;SDS011;3314;50.890;4.722;2022-10-31T02:37:34;19.1;;;7.6;;
6561;SDS011;3314;50.890;4.722;2022-10-31T02:39:25;17.7;;;6.8;;
6561;SDS011;3314;50.890;4.722;2022-10-31T02:41:27;14.5;;;6.8;;
6561;SDS011;3314;50.890;4.722;2022-10-31T02:43:32;13.3;;;5.5;;
6561;SDS011;3314;50.890;4.722;2022-10-31T02:45:24;18.0;;;5.7;;
6561;SDS011;3314;50.890;4.722;2022-10-31T02:47:26;21.2;;;5.9;;
6561;SDS011;3314;50.890;4.722;2022-10-31T02:49:27;16.9;;;6.5;;
6561;SDS011;3314;50.890;4.722;2022-10-31T02:51:29;16.7;;;5.8;;
6561;SDS011;3314;50.890;4.722;2022-10-31T02:53:31;14.3;;;5.9;;
6561;SDS011;3314;50.890;4.722;2022-10-31T02:55:42;16.0;;;6.0;;
6561;SDS011;3314;50.890;4.722;2022-10-31T02:57:22;13.4;;;5.2;;
6561;SDS011;3314;50.890;4.722;2022-10-31T02:59:24;22.1;;;6.5;;
6561;SDS011;3314;50.890;4.722;2022-10-31T03:01:30;16.7;;;6.3;;
6561;SDS011;3314;50.890;4.722;2022-10-31T03:03:20;15.1;;;5.1;;
6561;SDS011;3314;50.890;4.722;2022-10-31T03:05:27;15.5;;;6.4;;
6561;SDS011;3314;50.890;4.722;2022-10-31T03:07:21;15.5;;;5.4;;
6561;SDS011;3314;50.890;4.722;2022-10-31T03:09:24;15.9;;;5.8;;
6561;SDS011;3314;50.890;4.722;2022-10-31T03:11:28;15.8;;;5.5;;
6561;SDS011;3314;50.890;4.722;2022-10-31T03:13:20;16.4;;;7.0;;
6561;SDS011;3314;50.890;4.722;2022-10-31T03:15:22;13.9;;;5.7;;
6561;SDS011;3314;50.890;4.722;2022-10-31T03:17:23;15.5;;;6.0;;
6561;SDS011;3314;50.890;4.722;2022-10-31T03:19:25;12.3;;;4.9;;
6561;SDS011;3314;50.890;4.722;2022-10-31T03:21:26;17.0;;;5.3;;
6561;SDS011;3314;50.890;4.722;2022-10-31T03:23:26;17.1;;;6.1;;
6561;SDS011;3314;50.890;4.722;2022-10-31T03:25:17;16.9;;;6.2;;
6561;SDS011;3314;50.890;4.722;2022-10-31T03:27:18;14.9;;;5.5;;
6561;SDS011;3314;50.890;4.722;2022-10-31T03:29:20;18.4;;;6.5;;
6561;SDS011;3314;50.890;4.722;2022-10-31T03:31:22;13.6;;;4.7;;
6561;SDS011;3314;50.890;4.722;2022-10-31T03:33:24;14.6;;;4.9;;
6561;SDS011;3314;50.890;4.722;2022-10-31T03:35:25;13.5;;;5.2;;
6561;SDS011;3314;50.890;4.722;2022-10-31T03:37:16;13.7;;;5.8;;
6561;SDS011;3314;50.890;4.722;2022-10-31T03:39:18;14.2;;;4.8;;
6561;SDS011;3314;50.890;4.722;2022-10-31T03:41:19;17.4;;;6.8;;
6561;SDS011;3314;50.890;4.722;2022-10-31T03:43:22;14.8;;;5.3;;
6561;SDS011;3314;50.890;4.722;2022-10-31T03:45:23;15.6;;;5.5;;
6561;SDS011;3314;50.890;4.722;2022-10-31T03:47:23;16.3;;;5.6;;
6561;SDS011;3314;50.890;4.722;2022-10-31T03:49:23;13.8;;;5.4;;
6561;SDS011;3314;50.890;4.722;2022-10-31T03:51:23;13.4;;;4.4;;
6561;SDS011;3314;50.890;4.722;2022-10-31T03:53:14;14.8;;;5.0;;
6561;SDS011;3314;50.890;4.722;2022-10-31T03:55:17;13.7;;;4.9;;
6561;SDS011;3314;50.890;4.722;2022-10-31T03:57:18;15.7;;;5.6;;
6561;SDS011;3314;50.890;4.722;2022-10-31T03:59:21;16.3;;;5.6;;
6561;SDS011;3314;50.890;4.722;2022-10-31T04:01:22;15.1;;;6.6;;
6561;SDS011;3314;50.890;4.722;2022-10-31T04:03:14;17.7;;;5.3;;
6561;SDS011;3314;50.890;4.722;2022-10-31T04:05:15;17.3;;;5.8;;
6561;SDS011;3314;50.890;4.722;2022-10-31T04:07:15;14.2;;;4.6;;
6561;SDS011;3314;50.890;4.722;2022-10-31T04:09:15;12.8;;;5.2;;
6561;SDS011;3314;50.890;4.722;2022-10-31T04:11:15;11.6;;;4.8;;
6561;SDS011;3314;50.890;4.722;2022-10-31T04:13:17;15.5;;;5.6;;
6561;SDS011;3314;50.890;4.722;2022-10-31T04:15:19;15.5;;;5.5;;
6561;SDS011;3314;50.890;4.722;2022-10-31T04:17:19;14.2;;;5.8;;
6561;SDS011;3314;50.890;4.722;2022-10-31T04:19:10;15.1;;;5.2;;
6561;SDS011;3314;50.890;4.722;2022-10-31T04:21:10;15.6;;;4.8;;
6561;SDS011;3314;50.890;4.722;2022-10-31T04:23:13;22.5;;;5.5;;
6561;SDS011;3314;50.890;4.722;2022-10-31T04:25:14;14.7;;;5.2;;
6561;SDS011;3314;50.890;4.722;2022-10-31T04:27:14;17.4;;;5.6;;
6561;SDS011;3314;50.890;4.722;2022-10-31T04:29:14;13.7;;;4.8;;
6561;SDS011;3314;50.890;4.722;2022-10-31T04:31:13;13.0;;;5.1;;
6561;SDS011;3314;50.890;4.722;2022-10-31T04:33:13;13.4;;;5.1;;
6561;SDS011;3314;50.890;4.722;2022-10-31T04:35:13;13.4;;;5.4;;
6561;SDS011;3314;50.890;4.722;2022-10-31T04:37:12;15.6;;;6.3;;
6561;SDS011;3314;50.890;4.722;2022-10-31T04:39:12;15.2;;;5.5;;
6561;SDS011;3314;50.890;4.722;2022-10-31T04:41:12;17.2;;;5.2;;
6561;SDS011;3314;50.890;4.722;2022-10-31T04:43:11;16.5;;;5.4;;
6561;SDS011;3314;50.890;4.722;2022-10-31T04:45:11;13.1;;;4.5;;
6561;SDS011;3314;50.890;4.722;2022-10-31T04:47:11;14.8;;;5.3;;
6561;SDS011;3314;50.890;4.722;2022-10-31T04:49:10;17.6;;;6.1;;
6561;SDS011;3314;50.890;4.722;2022-10-31T04:51:10;15.1;;;4.7;;
6561;SDS011;3314;50.890;4.722;2022-10-31T04:53:10;15.2;;;5.6;;
6561;SDS011;3314;50.890;4.722;2022-10-31T04:55:10;18.4;;;5.3;;
6561;SDS011;3314;50.890;4.722;2022-10-31T04:57:09;19.9;;;5.7;;
6561;SDS011;3314;50.890;4.722;2022-10-31T04:59:09;14.2;;;5.8;;
6561;SDS011;3314;50.890;4.722;2022-10-31T05:01:09;15.1;;;5.5;;
6561;SDS011;3314;50.890;4.722;2022-10-31T05:03:09;15.4;;;5.4;;
6561;SDS011;3314;50.890;4.722;2022-10-31T05:05:08;13.2;;;4.9;;
6561;SDS011;3314;50.890;4.722;2022-10-31T05:07:08;13.9;;;5.3;;
6561;SDS011;3314;50.890;4.722;2022-10-31T05:09:08;18.1;;;5.5;;
6561;SDS011;3314;50.890;4.722;2022-10-31T05:11:07;15.2;;;5.0;;
6561;SDS011;3314;50.890;4.722;2022-10-31T05:13:07;14.4;;;5.9;;
6561;SDS011;3314;50.890;4.722;2022-10-31T05:15:07;16.2;;;5.4;;
6561;SDS011;3314;50.890;4.722;2022-10-31T05:17:07;13.8;;;5.6;;
6561;SDS011;3314;50.890;4.722;2022-10-31T05:19:07;16.4;;;5.4;;
6561;SDS011;3314;50.890;4.722;2022-10-31T05:21:06;13.4;;;5.3;;
6561;SDS011;3314;50.890;4.722;2022-10-31T05:23:06;13.8;;;5.5;;
6561;SDS011;3314;50.890;4.722;2022-10-31T05:25:06;14.1;;;5.6;;
6561;SDS011;3314;50.890;4.722;2022-10-31T05:27:06;16.2;;;5.6;;
6561;SDS011;3314;50.890;4.722;2022-10-31T05:29:05;16.3;;;5.7;;
6561;SDS011;3314;50.890;4.722;2022-10-31T05:31:05;14.0;;;5.3;;
6561;SDS011;3314;50.890;4.722;2022-10-31T05:33:05;14.4;;;5.6;;
6561;SDS011;3314;50.890;4.722;2022-10-31T05:35:05;15.1;;;6.0;;
6561;SDS011;3314;50.890;4.722;2022-10-31T05:37:04;13.8;;;5.7;;
6561;SDS011;3314;50.890;4.722;2022-10-31T05:39:04;18.5;;;7.5;;
6561;SDS011;3314;50.890;4.722;2022-10-31T05:41:04;21.7;;;6.5;;
6561;SDS011;3314;50.890;4.722;2022-10-31T05:43:03;19.7;;;6.5;;
6561;SDS011;3314;50.890;4.722;2022-10-31T05:45:03;19.2;;;6.5;;
6561;SDS011;3314;50.890;4.722;2022-10-31T05:47:03;17.6;;;6.3;;
6561;SDS011;3314;50.890;4.722;2022-10-31T05:49:03;18.0;;;6.6;;
6561;SDS011;3314;50.890;4.722;2022-10-31T05:51:03;16.2;;;6.8;;
6561;SDS011;3314;50.890;4.722;2022-10-31T05:53:03;16.8;;;7.4;;
6561;SDS011;3314;50.890;4.722;2022-10-31T05:55:03;16.9;;;5.6;;
6561;SDS011;3314;50.890;4.722;2022-10-31T05:57:03;17.7;;;6.8;;
6561;SDS011;3314;50.890;4.722;2022-10-31T05:59:02;16.9;;;6.7;;
6561;SDS011;3314;50.890;4.722;2022-10-31T06:01:02;16.7;;;5.4;;
6561;SDS011;3314;50.890;4.722;2022-10-31T06:03:02;19.9;;;6.1;;
6561;SDS011;3314;50.890;4.722;2022-10-31T06:05:03;16.8;;;6.2;;
6561;SDS011;3314;50.890;4.722;2022-10-31T06:07:02;16.8;;;6.0;;
6561;SDS011;3314;50.890;4.722;2022-10-31T06:09:02;14.9;;;6.0;;
6561;SDS011;3314;50.890;4.722;2022-10-31T06:11:02;19.7;;;6.8;;
6561;SDS011;3314;50.890;4.722;2022-10-31T06:13:01;16.7;;;5.4;;
6561;SDS011;3314;50.890;4.722;2022-10-31T06:15:01;15.5;;;6.0;;
6561;SDS011;3314;50.890;4.722;2022-10-31T06:17:01;13.6;;;5.1;;
6561;SDS011;3314;50.890;4.722;2022-10-31T06:19:00;13.5;;;5.3;;
6561;SDS011;3314;50.890;4.722;2022-10-31T06:21:00;15.5;;;5.7;;
6561;SDS011;3314;50.890;4.722;2022-10-31T06:23:00;15.7;;;6.0;;
6561;SDS011;3314;50.890;4.722;2022-10-31T06:25:00;14.4;;;6.1;;
6561;SDS011;3314;50.890;4.722;2022-10-31T06:27:00;16.0;;;6.0;;
6561;SDS011;3314;50.890;4.722;2022-10-31T06:28:59;22.1;;;6.1;;
6561;SDS011;3314;50.890;4.722;2022-10-31T06:30:59;18.5;;;6.4;;
6561;SDS011;3314;50.890;4.722;2022-10-31T06:33:02;19.1;;;6.9;;
6561;SDS011;3314;50.890;4.722;2022-10-31T06:35:02;18.4;;;6.5;;
6561;SDS011;3314;50.890;4.722;2022-10-31T06:37:01;20.1;;;6.3;;
6561;SDS011;3314;50.890;4.722;2022-10-31T06:39:01;20.9;;;6.9;;
6561;SDS011;3314;50.890;4.722;2022-10-31T06:41:02;19.7;;;7.1;;
6561;SDS011;3314;50.890;4.722;2022-10-31T06:42:58;20.8;;;6.9;;
6561;SDS011;3314;50.890;4.722;2022-10-31T06:44:58;22.6;;;7.4;;
6561;SDS011;3314;50.890;4.722;2022-10-31T06:46:58;16.1;;;6.6;;
6561;SDS011;3314;50.890;4.722;2022-10-31T06:48:58;18.0;;;6.7;;
6561;SDS011;3314;50.890;4.722;2022-10-31T06:50:58;18.5;;;6.7;;
6561;SDS011;3314;50.890;4.722;2022-10-31T06:53:00;18.5;;;7.4;;
6561;SDS011;3314;50.890;4.722;2022-10-31T06:54:49;17.6;;;6.8;;
6561;SDS011;3314;50.890;4.722;2022-10-31T06:56:49;16.1;;;6.7;;
6561;SDS011;3314;50.890;4.722;2022-10-31T06:58:48;19.3;;;6.8;;
6561;SDS011;3314;50.890;4.722;2022-10-31T07:00:48;23.3;;;7.4;;
6561;SDS011;3314;50.890;4.722;2022-10-31T07:02:55;20.4;;;7.3;;
6561;SDS011;3314;50.890;4.722;2022-10-31T07:04:55;21.7;;;7.4;;
6561;SDS011;3314;50.890;4.722;2022-10-31T07:06:54;26.8;;;7.1;;
6561;SDS011;3314;50.890;4.722;2022-10-31T07:08:54;20.0;;;7.1;;
6561;SDS011;3314;50.890;4.722;2022-10-31T07:10:55;27.1;;;7.1;;
6561;SDS011;3314;50.890;4.722;2022-10-31T07:12:55;18.8;;;6.7;;
6561;SDS011;3314;50.890;4.722;2022-10-31T07:14:55;19.0;;;6.5;;
6561;SDS011;3314;50.890;4.722;2022-10-31T07:16:54;18.9;;;5.9;;
6561;SDS011;3314;50.890;4.722;2022-10-31T07:18:54;18.0;;;5.2;;
6561;SDS011;3314;50.890;4.722;2022-10-31T07:20:53;18.8;;;6.6;;
6561;SDS011;3314;50.890;4.722;2022-10-31T07:22:53;17.0;;;6.1;;
6561;SDS011;3314;50.890;4.722;2022-10-31T07:24:58;18.9;;;7.1;;
6561;SDS011;3314;50.890;4.722;2022-10-31T07:26:47;18.3;;;6.1;;
6561;SDS011;3314;50.890;4.722;2022-10-31T07:28:47;15.7;;;6.0;;
6561;SDS011;3314;50.890;4.722;2022-10-31T07:30:49;17.7;;;6.3;;
6561;SDS011;3314;50.890;4.722;2022-10-31T07:32:49;21.0;;;6.4;;
6561;SDS011;3314;50.890;4.722;2022-10-31T07:34:49;18.4;;;5.7;;
6561;SDS011;3314;50.890;4.722;2022-10-31T07:36:50;15.5;;;6.3;;
6561;SDS011;3314;50.890;4.722;2022-10-31T07:38:50;18.9;;;7.3;;
6561;SDS011;3314;50.890;4.722;2022-10-31T07:40:50;17.5;;;6.1;;
6561;SDS011;3314;50.890;4.722;2022-10-31T07:42:50;17.0;;;6.2;;
6561;SDS011;3314;50.890;4.722;2022-10-31T07:44:50;16.4;;;6.4;;
6561;SDS011;3314;50.890;4.722;2022-10-31T07:46:50;18.2;;;5.9;;
6561;SDS011;3314;50.890;4.722;2022-10-31T07:48:50;15.7;;;6.7;;
6561;SDS011;3314;50.890;4.722;2022-10-31T07:50:49;19.3;;;7.0;;
6561;SDS011;3314;50.890;4.722;2022-10-31T07:52:57;17.9;;;7.2;;
6561;SDS011;3314;50.890;4.722;2022-10-31T07:54:45;18.2;;;7.1;;
6561;SDS011;3314;50.890;4.722;2022-10-31T07:56:45;18.0;;;7.5;;
6561;SDS011;3314;50.890;4.722;2022-10-31T07:58:44;20.9;;;7.3;;
6561;SDS011;3314;50.890;4.722;2022-10-31T08:00:45;15.8;;;6.6;;
6561;SDS011;3314;50.890;4.722;2022-10-31T08:02:45;22.3;;;7.1;;
6561;SDS011;3314;50.890;4.722;2022-10-31T08:04:44;14.5;;;6.5;;
6561;SDS011;3314;50.890;4.722;2022-10-31T08:06:44;18.0;;;6.4;;
6561;SDS011;3314;50.890;4.722;2022-10-31T08:08:44;21.6;;;6.3;;
6561;SDS011;3314;50.890;4.722;2022-10-31T08:10:43;16.2;;;7.1;;
6561;SDS011;3314;50.890;4.722;2022-10-31T08:12:43;19.8;;;8.6;;
6561;SDS011;3314;50.890;4.722;2022-10-31T08:14:43;16.3;;;6.6;;
6561;SDS011;3314;50.890;4.722;2022-10-31T08:16:42;19.2;;;6.8;;
6561;SDS011;3314;50.890;4.722;2022-10-31T08:18:42;14.9;;;6.7;;
6561;SDS011;3314;50.890;4.722;2022-10-31T08:20:42;18.8;;;6.6;;
6561;SDS011;3314;50.890;4.722;2022-10-31T08:22:42;22.8;;;6.9;;
6561;SDS011;3314;50.890;4.722;2022-10-31T08:24:42;14.7;;;6.2;;
6561;SDS011;3314;50.890;4.722;2022-10-31T08:26:41;15.9;;;7.5;;
6561;SDS011;3314;50.890;4.722;2022-10-31T08:28:41;17.1;;;6.7;;
6561;SDS011;3314;50.890;4.722;2022-10-31T08:30:41;23.3;;;7.5;;
6561;SDS011;3314;50.890;4.722;2022-10-31T08:32:41;16.9;;;6.7;;
6561;SDS011;3314;50.890;4.722;2022-10-31T08:34:40;17.3;;;7.2;;
6561;SDS011;3314;50.890;4.722;2022-10-31T08:36:40;22.0;;;7.0;;
6561;SDS011;3314;50.890;4.722;2022-10-31T08:38:40;19.3;;;7.1;;
6561;SDS011;3314;50.890;4.722;2022-10-31T08:40:39;19.0;;;7.3;;
6561;SDS011;3314;50.890;4.722;2022-10-31T08:42:39;17.6;;;7.1;;
6561;SDS011;3314;50.890;4.722;2022-10-31T08:44:39;19.8;;;7.7;;
6561;SDS011;3314;50.890;4.722;2022-10-31T08:46:39;15.1;;;6.7;;
6561;SDS011;3314;50.890;4.722;2022-10-31T08:48:38;15.6;;;7.0;;
6561;SDS011;3314;50.890;4.722;2022-10-31T08:50:38;18.0;;;6.6;;
6561;SDS011;3314;50.890;4.722;2022-10-31T08:52:38;19.3;;;7.7;;
6561;SDS011;3314;50.890;4.722;2022-10-31T08:54:37;20.3;;;8.2;;
6561;SDS011;3314;50.890;4.722;2022-10-31T08:56:40;19.9;;;7.4;;
6561;SDS011;3314;50.890;4.722;2022-10-31T08:58:40;14.7;;;7.1;;
6561;SDS011;3314;50.890;4.722;2022-10-31T09:00:39;18.8;;;7.4;;
6561;SDS011;3314;50.890;4.722;2022-10-31T09:02:40;15.8;;;7.2;;
6561;SDS011;3314;50.890;4.722;2022-10-31T09:04:39;18.6;;;7.2;;
6561;SDS011;3314;50.890;4.722;2022-10-31T09:06:39;16.3;;;6.9;;
6561;SDS011;3314;50.890;4.722;2022-10-31T09:08:39;16.7;;;7.1;;
6561;SDS011;3314;50.890;4.722;2022-10-31T09:10:38;16.4;;;7.5;;
6561;SDS011;3314;50.890;4.722;2022-10-31T09:12:38;17.0;;;6.9;;
6561;SDS011;3314;50.890;4.722;2022-10-31T09:14:37;20.9;;;7.6;;
6561;SDS011;3314;50.890;4.722;2022-10-31T09:16:37;23.8;;;7.5;;
6561;SDS011;3314;50.890;4.722;2022-10-31T09:18:37;18.7;;;7.4;;
6561;SDS011;3314;50.890;4.722;2022-10-31T09:20:37;18.0;;;7.6;;
6561;SDS011;3314;50.890;4.722;2022-10-31T09:22:37;20.2;;;7.7;;
6561;SDS011;3314;50.890;4.722;2022-10-31T09:24:37;19.4;;;7.8;;
6561;SDS011;3314;50.890;4.722;2022-10-31T09:26:37;20.7;;;7.5;;
6561;SDS011;3314;50.890;4.722;2022-10-31T09:28:36;22.2;;;7.5;;
6561;SDS011;3314;50.890;4.722;2022-10-31T09:30:36;20.2;;;7.1;;
6561;SDS011;3314;50.890;4.722;2022-10-31T09:32:36;19.5;;;7.8;;
6561;SDS011;3314;50.890;4.722;2022-10-31T09:34:36;19.4;;;7.1;;
6561;SDS011;3314;50.890;4.722;2022-10-31T09:36:35;20.5;;;8.0;;
6561;SDS011;3314;50.890;4.722;2022-10-31T09:38:35;21.3;;;7.4;;
6561;SDS011;3314;50.890;4.722;2022-10-31T09:40:35;20.8;;;7.1;;
6561;SDS011;3314;50.890;4.722;2022-10-31T09:42:39;21.5;;;8.2;;
6561;SDS011;3314;50.890;4.722;2022-10-31T09:44:31;21.1;;;7.1;;
6561;SDS011;3314;50.890;4.722;2022-10-31T09:46:38;18.5;;;7.8;;
6561;SDS011;3314;50.890;4.722;2022-10-31T09:48:34;26.7;;;8.3;;
6561;SDS011;3314;50.890;4.722;2022-10-31T09:50:38;17.7;;;7.9;;
6561;SDS011;3314;50.890;4.722;2022-10-31T09:52:29;19.3;;;8.0;;
6561;SDS011;3314;50.890;4.722;2022-10-31T09:54:30;20.1;;;7.4;;
6561;SDS011;3314;50.890;4.722;2022-10-31T09:56:31;23.6;;;7.9;;
6561;SDS011;3314;50.890;4.722;2022-10-31T09:58:31;19.5;;;8.4;;
6561;SDS011;3314;50.890;4.722;2022-10-31T10:00:33;18.5;;;7.1;;
6561;SDS011;3314;50.890;4.722;2022-10-31T10:02:36;24.5;;;8.8;;
6561;SDS011;3314;50.890;4.722;2022-10-31T10:04:30;19.5;;;7.9;;
6561;SDS011;3314;50.890;4.722;2022-10-31T10:06:32;19.1;;;7.7;;
6561;SDS011;3314;50.890;4.722;2022-10-31T10:08:33;21.4;;;9.0;;
6561;SDS011;3314;50.890;4.722;2022-10-31T10:10:36;21.5;;;7.4;;
6561;SDS011;3314;50.890;4.722;2022-10-31T10:12:33;16.5;;;7.3;;
6561;SDS011;3314;50.890;4.722;2022-10-31T10:14:29;17.4;;;7.0;;
6561;SDS011;3314;50.890;4.722;2022-10-31T10:16:40;16.4;;;7.0;;
6561;SDS011;3314;50.890;4.722;2022-10-31T10:18:32;18.2;;;7.6;;
6561;SDS011;3314;50.890;4.722;2022-10-31T10:20:26;24.1;;;7.5;;
6561;SDS011;3314;50.890;4.722;2022-10-31T10:22:30;25.2;;;8.2;;
6561;SDS011;3314;50.890;4.722;2022-10-31T10:24:25;22.7;;;7.5;;
6561;SDS011;3314;50.890;4.722;2022-10-31T10:26:29;21.8;;;8.3;;
6561;SDS011;3314;50.890;4.722;2022-10-31T10:28:30;29.1;;;8.4;;
6561;SDS011;3314;50.890;4.722;2022-10-31T10:30:22;20.7;;;8.1;;
6561;SDS011;3314;50.890;4.722;2022-10-31T10:32:23;17.8;;;7.6;;
6561;SDS011;3314;50.890;4.722;2022-10-31T10:34:24;21.1;;;8.3;;
6561;SDS011;3314;50.890;4.722;2022-10-31T10:36:28;17.9;;;7.2;;
6561;SDS011;3314;50.890;4.722;2022-10-31T10:38:31;16.7;;;7.7;;
6561;SDS011;3314;50.890;4.722;2022-10-31T10:40:23;20.8;;;8.9;;
6561;SDS011;3314;50.890;4.722;2022-10-31T10:43:29;21.6;;;8.5;;
6561;SDS011;3314;50.890;4.722;2022-10-31T10:46:40;21.6;;;7.9;;
6561;SDS011;3314;50.890;4.722;2022-10-31T10:47:56;19.9;;;7.6;;
6561;SDS011;3314;50.890;4.722;2022-10-31T10:48:27;18.8;;;7.3;;
6561;SDS011;3314;50.890;4.722;2022-10-31T10:50:26;17.0;;;7.3;;
6561;SDS011;3314;50.890;4.722;2022-10-31T10:52:30;20.6;;;8.1;;
6561;SDS011;3314;50.890;4.722;2022-10-31T10:54:23;19.9;;;8.2;;
6561;SDS011;3314;50.890;4.722;2022-10-31T10:56:32;19.8;;;7.5;;
6561;SDS011;3314;50.890;4.722;2022-10-31T10:58:24;19.6;;;7.3;;
6561;SDS011;3314;50.890;4.722;2022-10-31T11:00:24;25.4;;;8.1;;
6561;SDS011;3314;50.890;4.722;2022-10-31T11:02:25;18.0;;;8.1;;
6561;SDS011;3314;50.890;4.722;2022-10-31T11:04:28;17.9;;;7.0;;
6561;SDS011;3314;50.890;4.722;2022-10-31T11:06:18;20.8;;;7.3;;
6561;SDS011;3314;50.890;4.722;2022-10-31T11:08:23;14.7;;;6.3;;
6561;SDS011;3314;50.890;4.722;2022-10-31T11:10:23;17.9;;;6.9;;
6561;SDS011;3314;50.890;4.722;2022-10-31T11:12:24;19.5;;;6.4;;
6561;SDS011;3314;50.890;4.722;2022-10-31T11:14:25;18.8;;;7.0;;
6561;SDS011;3314;50.890;4.722;2022-10-31T11:16:29;19.4;;;6.5;;
6561;SDS011;3314;50.890;4.722;2022-10-31T11:18:19;18.6;;;6.4;;
6561;SDS011;3314;50.890;4.722;2022-10-31T11:20:24;16.1;;;5.4;;
6561;SDS011;3314;50.890;4.722;2022-10-31T11:22:24;18.6;;;5.9;;
6561;SDS011;3314;50.890;4.722;2022-10-31T11:24:26;17.4;;;6.9;;
6561;SDS011;3314;50.890;4.722;2022-10-31T11:26:18;15.2;;;5.8;;
6561;SDS011;3314;50.890;4.722;2022-10-31T11:28:18;19.8;;;6.3;;
6561;SDS011;3314;50.890;4.722;2022-10-31T11:30:18;16.6;;;5.7;;
6561;SDS011;3314;50.890;4.722;2022-10-31T11:32:19;17.6;;;5.5;;
6561;SDS011;3314;50.890;4.722;2022-10-31T11:34:26;17.5;;;5.3;;
6561;SDS011;3314;50.890;4.722;2022-10-31T11:36:18;14.4;;;4.9;;
6561;SDS011;3314;50.890;4.722;2022-10-31T11:38:21;19.1;;;5.7;;
6561;SDS011;3314;50.890;4.722;2022-10-31T11:40:23;17.2;;;5.1;;
6561;SDS011;3314;50.890;4.722;2022-10-31T11:42:24;15.4;;;5.7;;
6561;SDS011;3314;50.890;4.722;2022-10-31T11:44:15;15.6;;;5.9;;
6561;SDS011;3314;50.890;4.722;2022-10-31T11:46:17;14.0;;;4.9;;
6561;SDS011;3314;50.890;4.722;2022-10-31T11:48:18;17.6;;;5.8;;
6561;SDS011;3314;50.890;4.722;2022-10-31T11:50:20;18.3;;;4.8;;
6561;SDS011;3314;50.890;4.722;2022-10-31T11:52:20;20.7;;;5.1;;
6561;SDS011;3314;50.890;4.722;2022-10-31T11:54:23;19.5;;;5.6;;
6561;SDS011;3314;50.890;4.722;2022-10-31T11:56:13;19.3;;;6.1;;
6561;SDS011;3314;50.890;4.722;2022-10-31T11:58:21;15.5;;;5.5;;
6561;SDS011;3314;50.890;4.722;2022-10-31T12:00:22;14.9;;;4.8;;
6561;SDS011;3314;50.890;4.722;2022-10-31T12:02:22;17.1;;;5.0;;
6561;SDS011;3314;50.890;4.722;2022-10-31T12:04:26;18.9;;;4.7;;
6561;SDS011;3314;50.890;4.722;2022-10-31T12:06:16;19.5;;;5.8;;
6561;SDS011;3314;50.890;4.722;2022-10-31T12:08:18;19.1;;;5.8;;
6561;SDS011;3314;50.890;4.722;2022-10-31T12:10:18;15.5;;;5.2;;
6561;SDS011;3314;50.890;4.722;2022-10-31T12:12:25;15.3;;;5.4;;
6561;SDS011;3314;50.890;4.722;2022-10-31T12:14:22;18.4;;;5.1;;
6561;SDS011;3314;50.890;4.722;2022-10-31T12:16:12;14.1;;;4.8;;
6561;SDS011;3314;50.890;4.722;2022-10-31T12:18:22;16.7;;;5.3;;
6561;SDS011;3314;50.890;4.722;2022-10-31T12:20:16;20.3;;;5.7;;
6561;SDS011;3314;50.890;4.722;2022-10-31T12:22:20;13.2;;;5.3;;
6561;SDS011;3314;50.890;4.722;2022-10-31T12:24:14;17.5;;;5.6;;
6561;SDS011;3314;50.890;4.722;2022-10-31T12:26:17;14.4;;;5.4;;
6561;SDS011;3314;50.890;4.722;2022-10-31T12:28:25;22.0;;;5.0;;
6561;SDS011;3314;50.890;4.722;2022-10-31T12:30:24;19.4;;;5.1;;
6561;SDS011;3314;50.890;4.722;2022-10-31T12:32:17;15.8;;;4.7;;
6561;SDS011;3314;50.890;4.722;2022-10-31T12:34:22;15.1;;;5.4;;
6561;SDS011;3314;50.890;4.722;2022-10-31T12:36:18;13.9;;;4.4;;